Time;durP1;ratioP1;P1;durP2;ratioP2;P2;SDS_P1;SDS_P2;PMS_P1;PMS_P2;Temp;Humidity;BMP_temperature;BMP_pressure;BME280_temperature;BME280_humidity;BME280_pressure;Samples;Min_cycle;Max_cycle;Signal;HPM_P1;HPM_P2
2023/01/28 00:00:05;;;;;;;19.50;12.30;;;;;;;-0.39;100.00;96930.15;110091;1245;71158;-74
2023/01/28 00:02:54;;;;;;;17.10;12.00;;;;;;;-0.38;100.00;96930.09;110016;1245;69248;-73
2023/01/28 00:05:24;;;;;;;18.50;12.50;;;;;;;-0.40;100.00;96929.64;110095;1244;68578;-74
2023/01/28 00:07:53;;;;;;;20.80;15.30;;;;;;;-0.42;100.00;96930.59;110262;1244;58873;-73
2023/01/28 00:10:23;;;;;;;17.90;13.90;;;;;;;-0.46;100.00;96928.52;110055;1245;58926;-74
2023/01/28 00:12:53;;;;;;;20.40;14.40;;;;;;;-0.46;100.00;96929.20;109938;1245;69846;-74
2023/01/28 00:15:24;;;;;;;19.90;13.60;;;;;;;-0.50;100.00;96931.40;109810;1244;69177;-74
2023/01/28 00:17:54;;;;;;;19.40;13.40;;;;;;;-0.54;100.00;96927.45;110003;1246;69842;-73
2023/01/28 00:20:24;;;;;;;21.90;15.20;;;;;;;-0.55;100.00;96931.05;110036;1244;59089;-73
2023/01/28 00:22:53;;;;;;;21.40;14.10;;;;;;;-0.58;100.00;96931.14;110086;1242;58934;-73
2023/01/28 00:25:22;;;;;;;19.10;12.30;;;;;;;-0.59;100.00;96930.87;110073;1250;69820;-74
2023/01/28 00:27:51;;;;;;;18.90;11.80;;;;;;;-0.59;100.00;96929.84;110103;1244;69818;-72
2023/01/28 00:30:20;;;;;;;18.70;11.90;;;;;;;-0.60;100.00;96930.05;109778;1244;69896;-74
2023/01/28 00:32:50;;;;;;;14.00;9.90;;;;;;;-0.60;100.00;96932.45;109971;1244;58950;-74
2023/01/28 00:35:20;;;;;;;15.90;10.70;;;;;;;-0.62;100.00;96934.73;109879;1244;58968;-74
2023/01/28 00:37:50;;;;;;;17.10;10.40;;;;;;;-0.62;100.00;96935.77;109857;1244;70187;-73
2023/01/28 00:40:21;;;;;;;12.20;9.20;;;;;;;-0.64;100.00;96935.83;109967;1244;68648;-74
2023/01/28 00:42:50;;;;;;;16.90;11.00;;;;;;;-0.63;100.00;96934.44;110104;1244;69247;-74
2023/01/28 00:45:21;;;;;;;17.10;10.20;;;;;;;-0.62;100.00;96933.20;109745;1246;58919;-73
2023/01/28 00:47:50;;;;;;;13.90;9.90;;;;;;;-0.62;100.00;96932.16;110088;1245;58847;-73
2023/01/28 00:50:21;;;;;;;21.30;13.60;;;;;;;-0.63;100.00;96931.69;110114;1244;70311;-73
2023/01/28 00:52:51;;;;;;;;;;;;;;;-0.63;100.00;96929.80;110144;1245;68911;-74
2023/01/28 00:55:21;;;;;;;16.80;11.30;;;;;;;-0.66;100.00;96930.09;110174;1245;69189;-73
2023/01/28 00:57:50;;;;;;;15.20;11.10;;;;;;;-0.68;100.00;96929.98;110136;1244;58938;-73
2023/01/28 01:00:24;;;;;;;14.20;9.30;;;;;;;-0.68;100.00;96933.93;110169;1244;58868;-72
2023/01/28 01:02:54;;;;;;;16.80;10.50;;;;;;;-0.66;100.00;96935.38;109875;1244;70634;-77
2023/01/28 01:05:24;;;;;;;13.30;9.90;;;;;;;-0.66;100.00;96926.84;110149;1245;69270;-73
2023/01/28 01:07:53;;;;;;;14.90;10.00;;;;;;;-0.68;100.00;96929.16;109839;1245;68137;-72
2023/01/28 01:10:24;;;;;;;15.20;9.50;;;;;;;-0.68;100.00;96927.77;109816;1245;58917;-72
2023/01/28 01:12:55;;;;;;;14.70;9.10;;;;;;;-0.68;100.00;96922.98;110097;1245;58889;-73
2023/01/28 01:15:26;;;;;;;12.60;8.70;;;;;;;-0.69;100.00;96923.02;110122;1245;69667;-73
2023/01/28 01:17:58;;;;;;;14.00;9.10;;;;;;;-0.70;100.00;96924.23;110107;1244;70203;-72
2023/01/28 01:20:32;;;;;;;13.30;8.60;;;;;;;-0.72;100.00;96930.65;110094;1241;70481;-71
2023/01/28 01:23:01;;;;;;;10.50;7.60;;;;;;;-0.75;100.00;96929.91;109863;1245;58911;-73
2023/01/28 01:25:32;;;;;;;9.00;6.60;;;;;;;-0.75;100.00;96933.64;109910;1245;58848;-73
2023/01/28 01:28:02;;;;;;;8.70;6.30;;;;;;;-0.75;100.00;96938.62;109943;1245;70602;-74
2023/01/28 01:30:32;;;;;;;9.90;6.50;;;;;;;-0.75;100.00;96936.05;110065;1248;68361;-72
2023/01/28 01:33:01;;;;;;;8.60;6.80;;;;;;;-0.74;100.00;96938.25;109873;1244;69821;-73
2023/01/28 01:35:30;;;;;;;10.60;7.10;;;;;;;-0.78;100.00;96941.28;110003;1245;58910;-73
2023/01/28 01:38:00;;;;;;;10.50;7.70;;;;;;;-0.79;100.00;96940.47;109977;1244;58957;-72
2023/01/28 01:40:30;;;;;;;11.90;8.60;;;;;;;-0.83;100.00;96945.07;110133;1244;71825;-73
2023/01/28 01:43:01;;;;;;;9.10;7.20;;;;;;;-0.83;100.00;96945.08;110135;1244;68368;-73
2023/01/28 01:45:33;;;;;;;9.60;7.00;;;;;;;-0.84;100.00;96945.62;110086;1245;67542;-73
2023/01/28 01:48:19;;;;;;;10.90;7.20;;;;;;;-0.84;100.00;96948.20;110267;1244;58907;-74
2023/01/28 01:51:04;;;;;;;11.10;7.20;;;;;;;-0.83;100.00;96946.80;110250;1244;58872;-74
2023/01/28 01:53:36;;;;;;;7.60;5.50;;;;;;;-0.83;100.00;96947.13;110198;1248;70020;-74
2023/01/28 01:56:09;;;;;;;8.80;6.50;;;;;;;-0.82;100.00;96944.85;109900;1245;68592;-74
2023/01/28 01:58:45;;;;;;;13.80;8.80;;;;;;;-0.82;100.00;96943.83;110099;1245;69066;-74
2023/01/28 02:01:19;;;;;;;11.60;8.30;;;;;;;-0.84;100.00;96943.72;110105;1246;58886;-75
2023/01/28 02:04:23;;;;;;;17.10;11.00;;;;;;;-0.81;100.00;96945.00;110073;1246;58925;-74
2023/01/28 02:06:53;;;;;;;12.60;8.80;;;;;;;-0.81;100.00;96944.63;109864;1248;70770;-75
2023/01/28 02:09:30;;;;;;;8.60;6.60;;;;;;;-0.80;100.00;96944.95;110161;1244;69197;-74
2023/01/28 02:12:23;;;;;;;10.70;7.20;;;;;;;-0.81;100.00;96948.06;110022;1244;68392;-74
2023/01/28 02:15:05;;;;;;;9.00;6.90;;;;;;;-0.79;100.00;96950.23;110023;1243;58877;-75
2023/01/28 02:17:37;;;;;;;10.60;6.40;;;;;;;-0.76;100.00;96950.82;110008;1248;58848;-74
2023/01/28 02:20:18;;;;;;;11.70;6.90;;;;;;;-0.75;100.00;96947.84;109922;1244;69282;-74
2023/01/28 02:23:27;;;;;;;11.40;7.80;;;;;;;-0.73;100.00;96955.68;110054;1244;69337;-74
2023/01/28 02:26:17;;;;;;;10.70;7.80;;;;;;;-0.73;100.00;96960.81;110121;1244;69273;-74
2023/01/28 02:29:03;;;;;;;8.90;6.70;;;;;;;-0.73;100.00;96959.77;110109;1244;58827;-73
2023/01/28 02:31:38;;;;;;;12.60;9.10;;;;;;;-0.70;100.00;96958.98;110113;1246;58956;-74
2023/01/28 02:34:44;;;;;;;13.10;10.00;;;;;;;-0.70;100.00;96960.33;109924;1245;70609;-74
2023/01/28 02:37:20;;;;;;;11.50;8.90;;;;;;;-0.70;100.00;96958.97;109721;1244;69048;-74
2023/01/28 02:39:59;;;;;;;9.90;7.60;;;;;;;-0.68;100.00;96956.88;109784;1245;68330;-74
2023/01/28 02:42:34;;;;;;;12.30;8.40;;;;;;;-0.66;100.00;96959.85;110251;1245;58946;-74
2023/01/28 02:45:17;;;;;;;10.20;7.90;;;;;;;-0.64;100.00;96962.02;110029;1245;59290;-74
2023/01/28 02:47:56;;;;;;;10.40;7.60;;;;;;;-0.66;100.00;96960.89;110081;1245;69040;-75
2023/01/28 02:51:03;;;;;;;10.90;7.30;;;;;;;-0.67;100.00;96964.52;109885;1241;68510;-74
2023/01/28 02:53:47;;;;;;;10.60;7.50;;;;;;;-0.64;100.00;96963.23;109986;1245;69264;-75
2023/01/28 02:56:55;;;;;;;9.30;7.00;;;;;;;-0.64;100.00;96959.61;110176;1242;58913;-74
2023/01/28 02:59:37;;;;;;;9.50;6.00;;;;;;;-0.62;100.00;96955.61;109815;1246;58933;-74
2023/01/28 03:02:40;;;;;;;9.20;6.90;;;;;;;-0.62;100.00;96956.95;110100;1244;70526;-74
2023/01/28 03:05:30;;;;;;;14.80;10.10;;;;;;;-0.64;100.00;96954.83;110251;1244;69797;-74
2023/01/28 03:09:21;;;;;;;14.80;8.50;;;;;;;-0.65;100.00;96955.02;109935;1245;69277;-74
2023/01/28 03:36:54;;;;;;;;;;;;;;;-0.59;100.00;96956.73;110232;1244;68364;-74
2023/01/28 03:39:49;;;;;;;9.70;6.00;;;;;;;-0.59;100.00;96955.67;110098;1244;58938;-74
2023/01/28 03:42:19;;;;;;;9.30;6.40;;;;;;;-0.58;100.00;96954.11;109885;1245;58950;-74
2023/01/28 03:45:12;;;;;;;10.70;6.90;;;;;;;-0.57;100.00;96951.65;109770;1244;70606;-73
2023/01/28 03:47:47;;;;;;;10.60;7.00;;;;;;;-0.57;100.00;96953.36;109814;1246;69608;-74
2023/01/28 03:50:17;;;;;;;10.80;8.10;;;;;;;-0.58;100.00;96954.77;109696;1246;69319;-74
2023/01/28 03:53:10;;;;;;;9.30;6.80;;;;;;;-0.60;100.00;96960.15;109923;1244;58888;-74
2023/01/28 03:55:50;;;;;;;11.10;6.70;;;;;;;-0.60;100.00;96957.44;109867;1245;58938;-73
2023/01/28 03:58:21;;;;;;;10.00;7.10;;;;;;;-0.60;100.00;96963.08;109746;1246;71021;-74
2023/01/28 04:00:53;;;;;;;7.30;5.20;;;;;;;-0.60;100.00;96968.89;109761;1244;68540;-74
2023/01/28 04:03:22;;;;;;;7.70;5.00;;;;;;;-0.62;100.00;96973.23;109686;1247;69318;-74
2023/01/28 04:06:05;;;;;;;7.50;5.20;;;;;;;-0.64;100.00;96975.02;109752;1243;58941;-73
2023/01/28 04:08:55;;;;;;;6.90;4.80;;;;;;;-0.67;100.00;96979.23;109746;1245;58861;-74
2023/01/28 04:11:42;;;;;;;7.70;5.10;;;;;;;-0.70;100.00;96976.63;109819;1245;70589;-73
2023/01/28 04:14:18;;;;;;;7.00;5.40;;;;;;;-0.71;100.00;96979.55;109803;1246;69275;-73
2023/01/28 04:16:55;;;;;;;7.50;5.20;;;;;;;-0.71;100.00;96985.73;109922;1246;69172;-73
2023/01/28 04:19:27;;;;;;;7.00;4.60;;;;;;;-0.78;100.00;96989.71;109765;1245;59022;-74
2023/01/28 04:21:56;;;;;;;6.80;5.40;;;;;;;-0.83;100.00;96988.54;109742;1244;58917;-74
2023/01/28 04:24:26;;;;;;;;;;;;;;;-0.87;100.00;96989.52;109742;1245;70611;-73
2023/01/28 04:26:56;;;;;;;5.90;3.90;;;;;;;-0.88;100.00;96994.69;109830;1245;69851;-73
2023/01/28 04:29:27;;;;;;;7.90;5.30;;;;;;;-0.88;100.00;96997.27;109799;1243;69079;-74
2023/01/28 04:32:02;;;;;;;6.70;5.10;;;;;;;-0.87;100.00;96996.71;109797;1245;58899;-73
2023/01/28 04:34:40;;;;;;;7.60;5.40;;;;;;;-0.86;100.00;96998.40;109802;1244;58883;-73
2023/01/28 04:37:27;;;;;;;7.40;5.40;;;;;;;-0.86;100.00;97003.49;109976;1244;70842;-73
2023/01/28 04:40:28;;;;;;;9.00;5.80;;;;;;;-0.86;100.00;97006.06;109599;1244;69437;-73
2023/01/28 04:43:04;;;;;;;6.50;4.60;;;;;;;-0.85;100.00;97007.25;109818;1244;69112;-74
2023/01/28 04:45:48;;;;;;;7.00;4.90;;;;;;;-0.84;100.00;97007.89;109948;1244;58941;-74
2023/01/28 04:48:45;;;;;;;6.80;5.00;;;;;;;-0.85;100.00;97009.64;110008;1245;59439;-73
2023/01/28 04:51:31;;;;;;;7.60;4.60;;;;;;;-0.83;100.00;97012.14;109849;1244;71265;-73
2023/01/28 04:54:33;;;;;;;5.00;3.90;;;;;;;-0.81;100.00;97016.70;109793;1244;69825;-73
2023/01/28 04:57:05;;;;;;;6.10;4.40;;;;;;;-0.80;100.00;97015.30;109883;1247;68542;-73
2023/01/28 04:59:36;;;;;;;6.20;4.60;;;;;;;-0.81;100.00;97019.42;109756;1248;58962;-74
2023/01/28 05:02:07;;;;;;;6.00;4.30;;;;;;;-0.81;100.00;97022.66;109781;1244;58931;-73
2023/01/28 05:04:36;;;;;;;7.50;4.50;;;;;;;-0.81;100.00;97023.02;109852;1247;69746;-73
2023/01/28 05:07:09;;;;;;;5.50;3.90;;;;;;;-0.82;100.00;97023.38;109984;1244;68320;-73
2023/01/28 05:09:40;;;;;;;6.60;4.20;;;;;;;-0.82;100.00;97022.89;109784;1247;69736;-74
2023/01/28 05:12:09;;;;;;;7.60;4.50;;;;;;;-0.83;100.00;97026.34;109921;1244;58949;-74
2023/01/28 05:14:39;;;;;;;7.00;4.90;;;;;;;-0.87;100.00;97028.34;109953;1245;58866;-74
2023/01/28 05:17:13;;;;;;;6.10;4.40;;;;;;;-0.88;100.00;97024.79;109849;1245;70721;-74
2023/01/28 05:19:42;;;;;;;6.90;5.20;;;;;;;-0.87;100.00;97026.83;109745;1244;69189;-74
2023/01/28 05:22:18;;;;;;;8.00;5.40;;;;;;;-0.88;100.00;97031.13;109745;1245;69891;-74
2023/01/28 05:25:09;;;;;;;10.90;7.10;;;;;;;-0.90;100.00;97032.73;109923;1246;58946;-74
2023/01/28 05:27:39;;;;;;;;;;;;;;;-0.94;100.00;97034.59;109726;1245;58873;-74
2023/01/28 05:30:11;;;;;;;8.00;5.20;;;;;;;-1.00;100.00;97038.20;109806;1244;69824;-74
2023/01/28 05:32:41;;;;;;;10.80;7.30;;;;;;;-1.02;100.00;97044.92;109937;1244;69765;-73
2023/01/28 05:35:10;;;;;;;12.00;7.50;;;;;;;-1.05;100.00;97046.38;109726;1249;70699;-74
2023/01/28 05:37:39;;;;;;;11.00;7.10;;;;;;;-1.09;100.00;97047.73;109902;1244;58979;-75
2023/01/28 05:40:10;;;;;;;17.30;10.00;;;;;;;-1.10;100.00;97055.80;109787;1249;58905;-74
2023/01/28 05:42:39;;;;;;;25.70;18.10;;;;;;;-1.11;100.00;97058.88;109801;1244;71010;-74
2023/01/28 05:45:22;;;;;;;15.80;9.70;;;;;;;-1.13;100.00;97063.08;109900;1244;69642;-73
2023/01/28 05:48:15;;;;;;;40.30;26.70;;;;;;;-1.16;100.00;97063.14;109988;1242;70016;-73
2023/01/28 05:51:05;;;;;;;44.70;28.60;;;;;;;-1.17;100.00;97063.69;109794;1244;58941;-73
2023/01/28 05:53:40;;;;;;;13.10;8.60;;;;;;;-1.16;100.00;97065.05;110055;1244;58854;-73
2023/01/28 05:56:10;;;;;;;12.30;7.60;;;;;;;-1.14;100.00;97068.21;109903;1246;70416;-74
2023/01/28 05:58:40;;;;;;;13.40;8.40;;;;;;;-1.11;100.00;97069.17;109794;1245;69211;-73
2023/01/28 06:01:10;;;;;;;13.10;8.30;;;;;;;-1.08;100.00;97069.05;109996;1244;68111;-73
2023/01/28 06:03:41;;;;;;;10.10;6.90;;;;;;;-1.06;100.00;97070.38;110266;1244;58908;-74
2023/01/28 06:06:10;;;;;;;11.10;7.30;;;;;;;-1.01;100.00;97071.41;110072;1244;58787;-74
2023/01/28 06:08:40;;;;;;;12.30;7.30;;;;;;;-0.95;100.00;97073.44;110119;1245;70552;-73
2023/01/28 06:11:09;;;;;;;;;;;;;;;-0.89;100.00;97075.64;110194;1245;68716;-74
2023/01/28 06:13:40;;;;;;;14.40;8.00;;;;;;;-0.79;100.00;97079.76;110073;1242;69297;-74
2023/01/28 06:16:27;;;;;;;13.20;8.30;;;;;;;-0.70;100.00;97079.48;110056;1244;58888;-74
2023/01/28 06:19:10;;;;;;;9.50;6.20;;;;;;;-0.68;100.00;97086.27;110099;1244;58851;-74
2023/01/28 06:21:39;;;;;;;9.50;6.60;;;;;;;-0.69;100.00;97089.37;110148;1243;71157;-73
2023/01/28 06:24:08;;;;;;;8.80;5.70;;;;;;;-0.69;100.00;97094.66;110016;1246;69238;-74
2023/01/28 06:26:37;;;;;;;11.90;7.50;;;;;;;-0.68;100.00;97100.09;110099;1245;69373;-74
2023/01/28 06:29:07;;;;;;;9.40;6.70;;;;;;;-0.67;100.00;97102.64;110610;1244;58867;-73
2023/01/28 06:31:35;;;;;;;11.10;8.10;;;;;;;-0.67;100.00;97105.88;110128;1242;58822;-74
2023/01/28 06:34:04;;;;;;;10.00;6.90;;;;;;;-0.65;100.00;97110.45;110324;1244;70195;-74
2023/01/28 06:36:35;;;;;;;13.50;8.60;;;;;;;-0.63;100.00;97113.31;110698;1244;69918;-75
2023/01/28 06:39:04;;;;;;;14.60;9.50;;;;;;;-0.64;100.00;97115.21;110216;1244;69291;-74
2023/01/28 06:41:32;;;;;;;14.10;8.10;;;;;;;-0.65;100.00;97118.32;110030;1244;58908;-74
2023/01/28 06:44:02;;;;;;;13.40;7.10;;;;;;;-0.63;100.00;97119.65;110108;1245;58873;-74
2023/01/28 06:46:31;;;;;;;13.30;8.20;;;;;;;-0.62;100.00;97121.13;109942;1244;71078;-74
2023/01/28 06:49:00;;;;;;;13.10;7.70;;;;;;;-0.59;100.00;97121.89;109952;1244;69516;-74
2023/01/28 06:51:30;;;;;;;12.90;7.50;;;;;;;-0.56;100.00;97125.73;110322;1244;69795;-74
2023/01/28 06:53:59;;;;;;;16.30;8.80;;;;;;;-0.53;100.00;97129.54;110090;1244;58950;-74
2023/01/28 06:56:27;;;;;;;19.30;12.30;;;;;;;-0.46;100.00;97133.64;109950;1244;58880;-74
2023/01/28 06:58:56;;;;;;;18.50;12.40;;;;;;;-0.40;100.00;97131.38;110020;1244;71066;-74
2023/01/28 07:01:25;;;;;;;16.00;10.70;;;;;;;-0.39;100.00;97134.23;110082;1245;69207;-75
2023/01/28 07:03:55;;;;;;;19.40;11.60;;;;;;;-0.36;100.00;97136.21;110245;1244;69840;-74
2023/01/28 07:06:23;;;;;;;17.70;12.10;;;;;;;-0.37;100.00;97135.70;109914;1243;58966;-74
2023/01/28 07:08:53;;;;;;;20.30;13.90;;;;;;;-0.35;100.00;97139.25;110058;1244;58930;-75
2023/01/28 07:11:21;;;;;;;20.20;13.60;;;;;;;-0.32;100.00;97142.21;109960;1244;71155;-74
2023/01/28 07:13:50;;;;;;;18.50;12.00;;;;;;;-0.28;100.00;97136.59;110132;1244;70199;-74
2023/01/28 07:16:19;;;;;;;19.10;12.90;;;;;;;-0.21;100.00;97142.34;109997;1244;69278;-75
2023/01/28 07:18:48;;;;;;;18.70;12.30;;;;;;;-0.14;100.00;97148.80;110126;1244;58946;-75
2023/01/28 07:21:18;;;;;;;23.30;13.00;;;;;;;-0.10;100.00;97150.88;110128;1244;58962;-75
2023/01/28 07:23:47;;;;;;;16.50;11.00;;;;;;;0.01;100.00;97155.48;110107;1243;70216;-75
2023/01/28 07:26:15;;;;;;;17.30;9.70;;;;;;;0.06;100.00;97156.34;110013;1244;69261;-75
2023/01/28 07:28:44;;;;;;;13.00;9.30;;;;;;;0.08;100.00;97156.45;109970;1244;69830;-75
2023/01/28 07:31:12;;;;;;;16.60;9.60;;;;;;;0.13;100.00;97159.16;109900;1243;58897;-74
2023/01/28 07:33:41;;;;;;;13.70;9.00;;;;;;;0.15;100.00;97164.56;110165;1241;58910;-75
2023/01/28 07:36:10;;;;;;;12.50;8.60;;;;;;;0.19;100.00;97161.55;110264;1241;70764;-75
2023/01/28 07:38:39;;;;;;;15.30;8.80;;;;;;;0.22;100.00;97166.38;110254;1243;69811;-75
2023/01/28 07:41:07;;;;;;;13.70;8.20;;;;;;;0.27;100.00;97170.85;110063;1244;69872;-76
2023/01/28 07:43:36;;;;;;;18.90;14.50;;;;;;;0.32;100.00;97175.29;110268;1244;58904;-76
2023/01/28 07:46:05;;;;;;;29.60;20.60;;;;;;;0.35;100.00;97174.14;110214;1244;58883;-75
2023/01/28 07:48:34;;;;;;;29.30;19.80;;;;;;;0.38;100.00;97175.26;110189;1244;70392;-75
2023/01/28 07:51:03;;;;;;;16.60;11.90;;;;;;;0.39;100.00;97174.71;110173;1244;69840;-74
2023/01/28 07:53:32;;;;;;;18.00;12.20;;;;;;;0.41;100.00;97176.17;109842;1245;69281;-76
2023/01/28 07:56:01;;;;;;;24.00;16.00;;;;;;;0.43;100.00;97176.27;109778;1244;58821;-78
2023/01/28 07:58:33;;;;;;;39.70;27.00;;;;;;;0.45;100.00;97175.16;109978;1244;58839;-76
2023/01/28 08:01:02;;;;;;;38.60;25.10;;;;;;;0.44;100.00;97175.19;109986;1244;70444;-76
2023/01/28 08:03:31;;;;;;;24.40;16.30;;;;;;;0.44;100.00;97172.95;110018;1244;69670;-76
2023/01/28 08:06:00;;;;;;;27.70;17.40;;;;;;;0.44;100.00;97174.17;110082;1242;68845;-76
2023/01/28 08:08:29;;;;;;;22.80;13.40;;;;;;;0.47;100.00;97175.11;109986;1244;58952;-76
2023/01/28 08:10:57;;;;;;;27.30;16.90;;;;;;;0.51;100.00;97177.35;109896;1244;58898;-75
2023/01/28 08:13:26;;;;;;;19.40;13.60;;;;;;;0.57;100.00;97176.78;109902;1244;70988;-76
2023/01/28 08:15:55;;;;;;;20.00;13.60;;;;;;;0.61;100.00;97183.85;110128;1244;68382;-76
2023/01/28 08:18:24;;;;;;;18.20;13.20;;;;;;;0.64;100.00;97185.10;109788;1244;70025;-76
2023/01/28 08:20:57;;;;;;;16.70;11.60;;;;;;;0.68;100.00;97184.77;110065;1244;58943;-76
2023/01/28 08:23:27;;;;;;;20.70;14.00;;;;;;;0.72;100.00;97182.58;109900;1243;58912;-74
2023/01/28 08:25:58;;;;;;;22.60;15.20;;;;;;;0.78;100.00;97179.59;109940;1243;70410;-75
2023/01/28 08:28:26;;;;;;;23.50;15.90;;;;;;;0.83;100.00;97179.41;110152;1244;69254;-75
2023/01/28 08:30:59;;;;;;;20.20;15.40;;;;;;;0.77;100.00;97179.66;110122;1241;69329;-75
2023/01/28 08:33:28;;;;;;;23.80;15.40;;;;;;;0.78;99.99;97178.41;110144;1241;58954;-75
2023/01/28 08:35:57;;;;;;;20.20;13.70;;;;;;;0.76;100.00;97179.67;110156;1243;58828;-75
2023/01/28 08:38:26;;;;;;;24.00;15.90;;;;;;;0.76;100.00;97182.92;110137;1241;71082;-74
2023/01/28 08:40:56;;;;;;;34.90;25.10;;;;;;;0.80;100.00;97184.16;110158;1243;69368;-74
2023/01/28 08:43:25;;;;;;;;;;;;;;;0.79;100.00;97186.64;110182;1241;69065;-74
2023/01/28 08:45:53;;;;;;;26.40;18.10;;;;;;;0.78;100.00;97190.92;110136;1244;58964;-74
2023/01/28 08:48:22;;;;;;;26.20;18.10;;;;;;;0.81;100.00;97192.70;110092;1245;58831;-74
2023/01/28 08:50:52;;;;;;;25.40;17.70;;;;;;;0.86;100.00;97196.95;110127;1244;69666;-74
2023/01/28 08:53:20;;;;;;;21.80;16.10;;;;;;;0.90;100.00;97197.84;110097;1245;69827;-74
2023/01/28 08:55:49;;;;;;;20.50;14.30;;;;;;;1.07;100.00;97195.51;110104;1244;69858;-73
2023/01/28 08:58:18;;;;;;;26.40;17.30;;;;;;;1.35;100.00;97195.62;110100;1244;59021;-72
2023/01/28 09:00:47;;;;;;;25.00;16.60;;;;;;;1.41;100.00;97197.62;110132;1244;59256;-73
2023/01/28 09:03:16;;;;;;;27.30;17.70;;;;;;;1.40;100.00;97195.93;110164;1243;69858;-73
2023/01/28 09:05:45;;;;;;;21.30;14.60;;;;;;;1.36;100.00;97197.29;110282;1243;69822;-73
2023/01/28 09:08:14;;;;;;;21.10;14.70;;;;;;;1.23;98.92;97194.70;110058;1244;68408;-73
2023/01/28 09:10:43;;;;;;;19.10;14.40;;;;;;;1.06;98.16;97194.34;110099;1244;58963;-71
2023/01/28 09:13:14;;;;;;;20.60;13.60;;;;;;;0.96;98.22;97191.09;110111;1244;58924;-73
2023/01/28 09:15:43;;;;;;;21.40;14.70;;;;;;;0.77;98.72;97196.63;110092;1244;70885;-73
2023/01/28 09:18:12;;;;;;;21.40;16.90;;;;;;;0.83;98.65;97198.31;110108;1244;68504;-73
2023/01/28 09:20:41;;;;;;;19.10;12.80;;;;;;;0.83;98.38;97197.59;110084;1244;69527;-72
2023/01/28 09:23:10;;;;;;;17.90;12.70;;;;;;;0.85;98.75;97197.70;110078;1243;58860;-73
2023/01/28 09:25:39;;;;;;;19.10;12.80;;;;;;;0.85;98.95;97196.02;110127;1244;58836;-73
2023/01/28 09:28:08;;;;;;;28.10;21.00;;;;;;;0.82;99.08;97195.75;110132;1242;70776;-73
2023/01/28 09:30:38;;;;;;;21.80;15.10;;;;;;;0.79;99.55;97195.52;110126;1242;69223;-73
2023/01/28 09:33:07;;;;;;;;;;;;;;;0.79;99.95;97195.53;110253;1243;68530;-73
2023/01/28 09:35:36;;;;;;;35.20;19.50;;;;;;;0.86;99.98;97193.90;110074;1244;59024;-73
2023/01/28 09:38:04;;;;;;;36.30;23.30;;;;;;;0.85;99.87;97187.41;110123;1245;58876;-73
2023/01/28 09:40:41;;;;;;;29.70;20.00;;;;;;;0.80;99.89;97190.15;110090;1243;69816;-73
2023/01/28 09:43:24;;;;;;;30.10;18.30;;;;;;;0.74;100.00;97186.61;110140;1245;69204;-73
2023/01/28 09:45:57;;;;;;;30.50;19.60;;;;;;;0.71;100.00;97190.52;110294;1241;68495;-74
2023/01/28 09:48:32;;;;;;;33.40;20.10;;;;;;;0.79;100.00;97186.09;110170;1244;58900;-73
2023/01/28 09:51:01;;;;;;;21.30;14.40;;;;;;;0.88;99.95;97186.45;110208;1243;58891;-74
2023/01/28 09:53:35;;;;;;;20.50;13.70;;;;;;;0.98;99.76;97185.55;110182;1244;69641;-72
2023/01/28 09:56:13;;;;;;;20.30;12.90;;;;;;;1.13;99.15;97185.98;110210;1244;69050;-73
2023/01/28 09:58:42;;;;;;;15.90;11.30;;;;;;;1.22;97.97;97187.88;109953;1241;68314;-73
2023/01/28 10:01:43;;;;;;;16.90;11.30;;;;;;;1.25;96.99;97191.69;110150;1241;58867;-73
2023/01/28 10:04:38;;;;;;;16.40;11.10;;;;;;;1.23;95.78;97193.34;110109;1241;58909;-73
2023/01/28 10:07:28;;;;;;;15.20;11.60;;;;;;;1.33;96.14;97187.46;110289;1241;70675;-73
2023/01/28 10:10:20;;;;;;;17.00;13.40;;;;;;;1.26;96.35;97189.45;110151;1241;68483;-73
2023/01/28 10:12:59;;;;;;;16.70;11.60;;;;;;;1.23;97.06;97192.48;110168;1243;68339;-73
2023/01/28 10:15:36;;;;;;;15.40;11.40;;;;;;;1.26;96.91;97193.73;110118;1241;58946;-73
2023/01/28 10:18:11;;;;;;;14.10;9.50;;;;;;;1.20;96.51;97192.08;110158;1243;58866;-73
2023/01/28 10:20:50;;;;;;;;;;;;;;;1.23;95.45;97188.52;110152;1241;70429;-72
2023/01/28 10:23:30;;;;;;;13.90;8.40;;;;;;;1.38;95.65;97189.83;110184;1241;69229;-73
2023/01/28 10:26:04;;;;;;;13.00;9.10;;;;;;;1.41;94.12;97188.84;110125;1241;69900;-73
2023/01/28 10:28:34;;;;;;;15.40;9.70;;;;;;;1.55;94.49;97186.58;110176;1244;58944;-72
2023/01/28 10:31:13;;;;;;;14.60;11.40;;;;;;;1.58;94.76;97185.41;110136;1241;58860;-73
2023/01/28 10:33:41;;;;;;;13.40;10.50;;;;;;;1.58;95.04;97184.41;110297;1244;70667;-73
2023/01/28 10:36:10;;;;;;;14.90;10.20;;;;;;;1.53;95.13;97185.98;110155;1241;69797;-72
2023/01/28 10:38:39;;;;;;;12.30;9.10;;;;;;;1.52;94.93;97184.30;110182;1241;69598;-72
2023/01/28 10:41:10;;;;;;;14.30;9.90;;;;;;;1.55;94.73;97186.58;110267;1243;58931;-73
2023/01/28 10:43:41;;;;;;;12.30;9.60;;;;;;;1.56;94.56;97184.83;110265;1243;58850;-73
2023/01/28 10:46:15;;;;;;;14.80;10.50;;;;;;;1.57;94.48;97184.79;110214;1243;71188;-73
2023/01/28 10:49:12;;;;;;;15.20;10.10;;;;;;;1.44;94.82;97182.91;110126;1243;67456;-74
2023/01/28 10:51:42;;;;;;;16.90;10.10;;;;;;;1.45;94.51;97181.65;109869;1242;376221;-73
2023/01/28 10:54:25;;;;;;;12.80;9.20;;;;;;;1.40;95.44;97179.10;110096;1245;59037;-74
2023/01/28 10:56:58;;;;;;;19.80;12.10;;;;;;;1.51;95.49;97180.70;110127;1244;58891;-73
2023/01/28 10:59:29;;;;;;;15.60;11.10;;;;;;;1.52;94.83;97182.40;110173;1241;71213;-72
2023/01/28 11:02:19;;;;;;;18.10;12.60;;;;;;;1.42;95.55;97181.79;110145;1244;69805;-73
2023/01/28 11:04:59;;;;;;;16.50;12.30;;;;;;;1.38;95.78;97181.75;110152;1241;69880;-74
2023/01/28 11:07:27;;;;;;;15.40;11.70;;;;;;;1.43;96.19;97177.77;109963;1245;58889;-74
2023/01/28 11:09:56;;;;;;;17.10;12.00;;;;;;;1.47;95.85;97177.45;110158;1243;58824;-74
2023/01/28 11:12:30;;;;;;;16.60;12.00;;;;;;;1.54;95.42;97179.39;110142;1241;71161;-73
2023/01/28 11:15:04;;;;;;;14.60;10.90;;;;;;;1.56;94.77;97179.49;110198;1241;68579;-74
2023/01/28 11:17:37;;;;;;;18.30;13.00;;;;;;;1.54;95.00;97179.58;110103;1241;69265;-73
2023/01/28 11:20:18;;;;;;;16.40;11.20;;;;;;;1.62;94.70;97179.77;110137;1244;58930;-73
2023/01/28 11:22:48;;;;;;;16.60;11.20;;;;;;;1.74;93.70;97181.15;110196;1241;58947;-73
2023/01/28 11:25:31;;;;;;;18.80;12.40;;;;;;;1.76;92.46;97178.48;110134;1241;70986;-73
2023/01/28 11:28:04;;;;;;;17.50;11.80;;;;;;;1.87;92.61;97182.16;110259;1241;69861;-73
2023/01/28 11:30:37;;;;;;;17.00;11.90;;;;;;;1.92;92.75;97179.23;110165;1241;69214;-73
2023/01/28 11:33:44;;;;;;;19.20;14.10;;;;;;;1.91;92.96;97180.27;110115;1243;58935;-73
2023/01/28 11:36:22;;;;;;;21.50;14.40;;;;;;;1.93;92.04;97173.36;110173;1243;58876;-73
2023/01/28 11:38:59;;;;;;;22.10;14.50;;;;;;;1.82;92.42;97177.23;110156;1244;70680;-73
2023/01/28 11:41:36;;;;;;;22.10;15.60;;;;;;;1.80;92.89;97177.63;110150;1241;68648;-74
2023/01/28 11:44:17;;;;;;;20.90;16.10;;;;;;;1.62;93.64;97177.54;110153;1244;69881;-74
2023/01/28 11:47:04;;;;;;;24.20;17.30;;;;;;;1.57;94.87;97176.71;110206;1242;58924;-73
2023/01/28 11:49:39;;;;;;;25.50;18.10;;;;;;;1.63;94.33;97175.45;110165;1243;58910;-74
2023/01/28 11:52:41;;;;;;;33.80;23.40;;;;;;;1.67;93.98;97173.05;110155;1241;71184;-74
2023/01/28 11:55:40;;;;;;;51.40;31.00;;;;;;;1.57;93.77;97178.59;110168;1241;69884;-74
2023/01/28 11:58:45;;;;;;;33.20;23.60;;;;;;;1.51;94.43;97176.75;110156;1243;69871;-74
2023/01/28 12:01:29;;;;;;;77.30;48.00;;;;;;;1.40;94.88;97178.09;110120;1241;58939;-74
2023/01/28 12:04:35;;;;;;;45.00;29.60;;;;;;;1.35;96.12;97176.73;110184;1241;58938;-74
2023/01/28 12:07:13;;;;;;;25.40;17.80;;;;;;;1.32;96.26;97180.63;110179;1241;70854;-74
2023/01/28 12:09:57;;;;;;;26.20;19.70;;;;;;;1.34;95.78;97183.31;110125;1244;69744;-73
2023/01/28 12:12:38;;;;;;;27.80;19.30;;;;;;;1.30;95.97;97189.63;110137;1241;69119;-73
2023/01/28 12:15:38;;;;;;;28.50;18.70;;;;;;;1.28;96.73;97191.45;110105;1241;58869;-73